Time;durP1;ratioP1;P1;durP2;ratioP2;P2;SDS_P1;SDS_P2;PMS_P1;PMS_P2;Temp;Humidity;BMP_temperature;BMP_pressure;BME280_temperature;BME280_humidity;BME280_pressure;Samples;Min_cycle;Max_cycle;Signal;HPM_P1;HPM_P2
2023/03/02 00:01:03;;;;;;;13.85;5.72;;;;;;;-144.47;63.46;53066.63;5031836;28;20094;-70
2023/03/02 00:03:29;;;;;;;14.60;5.75;;;;;;;-144.47;63.68;53086.50;5029376;28;20392;-70
2023/03/02 00:05:55;;;;;;;12.38;5.40;;;;;;;-144.47;63.20;53094.44;5032074;28;20044;-69
2023/03/02 00:08:21;;;;;;;17.13;6.55;;;;;;;-144.47;63.25;53082.53;5037591;28;20060;-71
2023/03/02 00:10:47;;;;;;;14.38;5.28;;;;;;;-144.47;63.30;53064.66;5051724;28;20511;-69
2023/03/02 00:13:13;;;;;;;14.52;6.22;;;;;;;-144.47;63.15;53074.56;5050930;28;20483;-69
2023/03/02 00:15:39;;;;;;;13.30;5.60;;;;;;;-144.47;63.07;53090.47;5051137;28;20471;-69
2023/03/02 00:18:04;;;;;;;17.88;5.07;;;;;;;-144.47;63.28;53072.59;5047878;28;20033;-69
2023/03/02 00:20:30;;;;;;;12.80;5.85;;;;;;;-144.47;63.51;53096.41;5031285;28;20120;-68
2023/03/02 00:22:55;;;;;;;13.00;5.15;;;;;;;-144.47;63.60;53102.38;5046911;28;20116;-68
2023/03/02 00:25:21;;;;;;;18.45;6.32;;;;;;;-144.47;63.32;53054.72;5042168;28;20030;-66
2023/03/02 00:27:46;;;;;;;19.45;6.55;;;;;;;-144.47;63.33;53086.50;5046251;28;20046;-69
2023/03/02 00:30:13;;;;;;;17.77;6.38;;;;;;;-144.47;63.40;53078.53;5024524;28;20030;-68
2023/03/02 00:32:38;;;;;;;11.23;5.80;;;;;;;-144.47;63.74;53092.44;5045433;28;20029;-70
2023/03/02 00:35:04;;;;;;;14.25;5.80;;;;;;;-144.47;63.55;53106.34;5032623;28;20031;-68
2023/03/02 00:37:30;;;;;;;16.23;6.53;;;;;;;-144.47;63.70;53102.38;5033190;28;20021;-68
2023/03/02 00:39:55;;;;;;;17.02;6.43;;;;;;;-144.47;64.30;53106.34;5039110;28;20025;-70
2023/03/02 00:42:21;;;;;;;17.08;6.13;;;;;;;-144.47;63.82;53100.41;5018142;28;20083;-71
2023/03/02 00:44:46;;;;;;;14.30;5.78;;;;;;;-144.47;64.17;53060.66;5047120;28;20032;-69
2023/03/02 00:47:12;;;;;;;30.48;8.27;;;;;;;-144.47;63.94;53070.59;5045702;28;20029;-66
2023/03/02 00:49:37;;;;;;;19.10;7.30;;;;;;;-144.47;64.63;53086.50;5041728;28;20483;-68
2023/03/02 00:52:04;;;;;;;20.40;5.95;;;;;;;-144.47;64.90;53090.47;5043934;28;20024;-69
2023/03/02 00:54:29;;;;;;;13.65;6.78;;;;;;;-144.47;64.93;53090.47;5020826;28;20029;-67
2023/03/02 00:56:55;;;;;;;15.40;6.15;;;;;;;-144.47;64.54;53112.31;5050504;28;20479;-69
2023/03/02 00:59:26;;;;;;;14.68;5.13;;;;;;;-144.47;64.79;53080.53;5050508;28;20029;-68
2023/03/02 01:01:58;;;;;;;15.43;6.50;;;;;;;-144.47;64.81;53090.47;5035375;28;20475;-69
2023/03/02 01:04:33;;;;;;;21.50;6.15;;;;;;;-144.47;64.29;53076.56;5031429;28;20060;-69
2023/03/02 01:07:04;;;;;;;15.52;6.53;;;;;;;-144.47;64.05;53090.47;5043033;28;20140;-70
2023/03/02 01:09:30;;;;;;;15.77;6.85;;;;;;;-144.47;64.07;53090.47;5034348;28;20029;-69
2023/03/02 01:11:56;;;;;;;17.90;5.50;;;;;;;-144.47;64.11;53098.41;5034538;28;20025;-69
2023/03/02 01:14:22;;;;;;;14.95;6.03;;;;;;;-144.47;64.17;53128.22;5049781;28;20024;-68
2023/03/02 01:16:48;;;;;;;24.58;5.63;;;;;;;-144.47;64.27;53112.31;5049070;28;20037;-69
2023/03/02 01:19:14;;;;;;;15.18;6.45;;;;;;;-144.47;64.45;53082.53;5049150;28;20075;-69
2023/03/02 01:21:40;;;;;;;18.08;7.22;;;;;;;-144.47;64.15;53076.56;5044838;28;20041;-69
2023/03/02 01:24:06;;;;;;;13.70;5.75;;;;;;;-144.47;64.37;53082.53;5041866;28;20059;-68
2023/03/02 01:26:32;;;;;;;19.60;6.57;;;;;;;-144.47;64.81;53070.59;5052258;28;20028;-67
2023/03/02 01:28:57;;;;;;;15.65;6.38;;;;;;;-144.47;64.77;53096.41;5042082;28;20086;-70
2023/03/02 01:31:27;;;;;;;14.55;6.10;;;;;;;-144.47;64.56;53118.28;5034111;28;20021;-67
2023/03/02 01:33:53;;;;;;;13.98;5.50;;;;;;;-144.47;65.16;53118.28;5037038;28;20155;-67
2023/03/02 01:36:19;;;;;;;13.93;5.00;;;;;;;-144.47;65.99;53094.44;5047930;28;20100;-70
2023/03/02 01:38:45;;;;;;;16.35;6.70;;;;;;;-144.47;65.73;53128.22;5050644;28;20048;-69
2023/03/02 01:41:11;;;;;;;20.38;6.97;;;;;;;-144.47;65.93;53076.56;5034629;28;20025;-69
2023/03/02 01:43:37;;;;;;;13.13;6.00;;;;;;;-144.47;65.89;53136.16;5031394;28;20104;-69
2023/03/02 01:46:07;;;;;;;13.32;6.43;;;;;;;-144.47;65.98;53114.31;5045701;28;20504;-68
2023/03/02 01:48:38;;;;;;;10.25;5.07;;;;;;;-144.47;66.00;53088.47;5040753;28;20185;-68
2023/03/02 01:51:05;;;;;;;15.90;6.20;;;;;;;-144.47;65.61;53086.50;5043662;28;20026;-68
2023/03/02 01:53:33;;;;;;;22.17;6.82;;;;;;;-144.47;65.49;53046.75;5024131;28;20025;-70
2023/03/02 01:56:01;;;;;;;14.10;5.78;;;;;;;-144.47;65.72;53102.38;5029315;28;20025;-69
2023/03/02 01:58:30;;;;;;;12.90;6.22;;;;;;;-144.47;65.64;53094.44;5031399;28;20128;-68
2023/03/02 02:00:57;;;;;;;17.13;7.60;;;;;;;-144.47;65.72;53098.41;5037034;28;20255;-69
2023/03/02 02:03:27;;;;;;;17.30;6.03;;;;;;;-144.47;65.77;53072.59;5011034;28;20106;-70
2023/03/02 02:06:29;;;;;;;16.67;7.10;;;;;;;-144.47;66.09;53102.38;5039774;28;20035;-69
2023/03/02 02:08:56;;;;;;;14.50;6.15;;;;;;;-144.47;66.57;53072.59;5036204;28;20044;-70
2023/03/02 02:11:22;;;;;;;18.35;6.40;;;;;;;-144.47;66.66;53126.22;5028828;28;20025;-67
2023/03/02 02:13:48;;;;;;;26.92;7.60;;;;;;;-144.47;66.88;53108.34;5028853;28;20101;-69
2023/03/02 02:16:14;;;;;;;16.63;6.90;;;;;;;-144.47;66.39;53100.41;5027290;28;20101;-70
2023/03/02 02:18:40;;;;;;;22.70;7.00;;;;;;;-144.47;66.26;53094.44;5017265;28;20025;-67
2023/03/02 02:21:08;;;;;;;19.85;6.68;;;;;;;-144.47;66.43;53104.38;5047775;28;20040;-70
2023/03/02 02:23:47;;;;;;;15.70;7.65;;;;;;;-144.47;66.54;53098.41;5028327;28;20514;-67
2023/03/02 02:26:26;;;;;;;20.83;6.93;;;;;;;-144.47;66.86;53086.50;5023519;28;20551;-68
2023/03/02 02:29:11;;;;;;;;;;;;;;;-144.47;67.45;53088.47;5028883;28;20017;-70
2023/03/02 02:32:09;;;;;;;19.35;5.55;;;;;;;-144.47;67.79;53098.41;5035729;28;19962;-67
2023/03/02 02:34:40;;;;;;;17.57;6.63;;;;;;;-144.47;68.47;53110.31;5038452;28;20032;-69
2023/03/02 02:37:12;;;;;;;13.55;6.82;;;;;;;-144.47;68.55;53098.41;5047320;28;20558;-70
2023/03/02 02:39:44;;;;;;;17.95;6.95;;;;;;;-144.47;69.12;53142.09;5029965;28;20025;-70
2023/03/02 02:42:14;;;;;;;21.55;6.88;;;;;;;-144.47;69.17;53126.22;5033796;28;20109;-70
2023/03/02 02:44:40;;;;;;;17.10;6.80;;;;;;;-144.47;69.77;53122.25;5039062;28;20088;-69
2023/03/02 02:47:24;;;;;;;17.90;8.32;;;;;;;-144.47;69.63;53122.25;5042592;28;20434;-71
2023/03/02 02:49:52;;;;;;;15.98;8.10;;;;;;;-144.47;70.06;53094.44;5037558;28;20502;-72
2023/03/02 02:52:21;;;;;;;20.57;8.17;;;;;;;-144.47;70.17;53110.31;5044669;28;20033;-70
2023/03/02 02:54:48;;;;;;;17.42;7.45;;;;;;;-144.47;70.25;53104.38;5047820;28;20100;-68
2023/03/02 02:57:16;;;;;;;20.08;7.35;;;;;;;-144.47;70.50;53118.28;5043780;28;20025;-71
2023/03/02 02:59:52;;;;;;;14.60;7.50;;;;;;;-144.47;70.84;53108.34;5039028;28;20040;-71
2023/03/02 03:02:23;;;;;;;15.73;7.18;;;;;;;-144.47;70.85;53112.31;5024252;28;20112;-68
2023/03/02 03:04:49;;;;;;;21.05;8.00;;;;;;;-144.47;70.90;53154.03;5031234;28;20025;-66
2023/03/02 03:07:20;;;;;;;16.98;7.43;;;;;;;-144.47;71.34;53124.22;5040854;28;20064;-69
2023/03/02 03:09:50;;;;;;;12.38;6.25;;;;;;;-144.47;70.87;53146.09;5045747;28;20082;-69
2023/03/02 03:12:20;;;;;;;19.80;7.70;;;;;;;-144.47;71.12;53114.31;5035125;28;20234;-69
2023/03/02 03:14:47;;;;;;;18.00;7.85;;;;;;;-144.47;71.15;53120.25;5032493;28;20022;-69
2023/03/02 03:17:12;;;;;;;20.95;7.30;;;;;;;-144.47;71.31;53114.31;5035405;28;20025;-69
2023/03/02 03:19:41;;;;;;;15.05;7.22;;;;;;;-144.47;70.92;53102.38;5034122;28;20029;-70
2023/03/02 03:22:07;;;;;;;19.10;7.13;;;;;;;-144.47;70.63;53112.31;5022457;28;20076;-69
2023/03/02 03:24:33;;;;;;;25.02;8.50;;;;;;;-144.47;70.51;53146.09;5040690;28;20562;-67
2023/03/02 03:27:00;;;;;;;25.20;9.15;;;;;;;-144.47;70.49;53090.47;5036928;28;20497;-69
2023/03/02 03:29:28;;;;;;;25.60;7.32;;;;;;;-144.47;70.88;53124.22;5038411;28;20029;-69
2023/03/02 03:31:55;;;;;;;16.52;7.13;;;;;;;-144.47;70.83;53144.09;5043207;28;20354;-70
2023/03/02 03:34:21;;;;;;;19.95;8.93;;;;;;;-144.47;70.80;53124.22;5041606;28;20104;-68
2023/03/02 03:36:47;;;;;;;16.67;7.50;;;;;;;-144.47;70.83;53114.31;5026391;28;20060;-69
2023/03/02 03:39:14;;;;;;;21.63;8.32;;;;;;;-144.47;71.43;53110.31;5049745;28;20025;-70
2023/03/02 03:41:40;;;;;;;17.83;8.13;;;;;;;-144.47;71.43;53116.28;5054680;28;20029;-70
2023/03/02 03:44:06;;;;;;;19.67;8.40;;;;;;;-144.47;71.43;53118.28;5048485;28;20094;-68
2023/03/02 03:46:32;;;;;;;19.90;8.20;;;;;;;-144.47;71.58;53140.13;5039669;28;20490;-67
2023/03/02 03:48:57;;;;;;;18.25;7.13;;;;;;;-144.47;71.70;53104.38;5049865;28;20040;-67
2023/03/02 03:51:23;;;;;;;18.60;7.80;;;;;;;-144.47;71.54;53120.25;5053250;28;20021;-71
2023/03/02 03:53:58;;;;;;;12.77;6.20;;;;;;;-144.47;71.84;53120.25;5050717;28;20043;-70
2023/03/02 03:56:32;;;;;;;19.20;8.80;;;;;;;-144.47;71.83;53126.22;5044311;28;20040;-68
2023/03/02 03:59:05;;;;;;;24.15;8.13;;;;;;;-144.47;72.11;53128.22;5048740;28;20078;-70
2023/03/02 04:01:36;;;;;;;17.55;8.10;;;;;;;-144.47;72.13;53120.25;5019420;28;20104;-71
2023/03/02 04:04:03;;;;;;;19.05;8.48;;;;;;;-144.47;72.00;53148.06;5032269;28;20498;-71
2023/03/02 04:06:29;;;;;;;36.05;8.70;;;;;;;-144.47;71.96;53126.22;5035375;28;20033;-68
2023/03/02 04:08:54;;;;;;;16.75;8.48;;;;;;;-144.47;71.86;53104.38;5047446;28;20147;-69
2023/03/02 04:11:19;;;;;;;19.08;8.02;;;;;;;-144.47;72.23;53106.34;5047773;28;20032;-70
2023/03/02 04:13:45;;;;;;;21.13;8.05;;;;;;;-144.47;72.13;53112.31;5054071;28;20429;-68
2023/03/02 04:18:38;;;;;;;18.77;8.15;;;;;;;-144.47;71.37;53160.00;5067065;22;20041;-65
2023/03/02 04:21:04;;;;;;;24.83;9.55;;;;;;;-144.47;71.01;53110.31;5036140;28;20156;-67
2023/03/02 04:23:29;;;;;;;14.02;7.20;;;;;;;-144.47;71.05;53130.19;5049684;28;20526;-66
2023/03/02 04:25:54;;;;;;;23.63;8.50;;;;;;;-144.47;71.56;53124.22;5047050;28;20028;-65
2023/03/02 04:28:20;;;;;;;21.55;8.00;;;;;;;-144.47;71.94;53130.19;5035432;28;20022;-67
2023/03/02 04:30:45;;;;;;;20.48;7.65;;;;;;;-144.47;71.69;53138.13;5052387;28;20021;-67
2023/03/02 04:33:10;;;;;;;23.27;7.57;;;;;;;-144.47;71.37;53110.31;5074357;28;20024;-69
2023/03/02 04:35:36;;;;;;;18.77;7.53;;;;;;;-144.47;71.46;53126.22;5053702;28;20036;-69
2023/03/02 04:38:01;;;;;;;20.30;8.32;;;;;;;-144.47;71.01;53100.41;5050609;28;20025;-69
2023/03/02 04:40:27;;;;;;;16.85;7.82;;;;;;;-144.47;71.20;53126.22;5051716;28;20040;-68
2023/03/02 04:42:52;;;;;;;26.50;8.32;;;;;;;-144.47;72.12;53130.19;5036245;28;20431;-69
2023/03/02 04:45:18;;;;;;;33.67;8.93;;;;;;;-144.47;72.30;53108.34;5048265;28;20049;-65
2023/03/02 04:47:43;;;;;;;20.48;8.60;;;;;;;-144.47;72.45;53154.03;5051930;28;20021;-69
2023/03/02 04:50:11;;;;;;;24.90;7.70;;;;;;;-144.47;72.55;53138.13;5052931;28;20612;-67
2023/03/02 04:52:37;;;;;;;17.45;8.38;;;;;;;-144.47;72.45;53134.16;5052375;28;20032;-69
2023/03/02 04:55:02;;;;;;;25.58;8.50;;;;;;;-144.47;71.75;53126.22;5052719;28;20028;-68
2023/03/02 04:57:28;;;;;;;23.00;9.07;;;;;;;-144.47;71.53;53128.22;5052199;28;20541;-66
2023/03/02 04:59:53;;;;;;;18.63;8.65;;;;;;;-144.47;71.08;53142.09;5040042;28;20029;-67
2023/03/02 05:02:18;;;;;;;20.73;7.40;;;;;;;-144.47;70.61;53118.28;5034315;28;20764;-67
2023/03/02 05:04:44;;;;;;;19.00;7.97;;;;;;;-144.47;70.69;53114.31;5036435;28;20044;-69
2023/03/02 05:07:09;;;;;;;23.67;7.75;;;;;;;-144.47;71.22;53122.25;5038830;28;20228;-68
2023/03/02 05:09:35;;;;;;;21.25;7.85;;;;;;;-144.47;70.76;53144.09;5036187;28;20041;-67
2023/03/02 05:12:00;;;;;;;16.27;8.05;;;;;;;-144.47;70.75;53084.50;5041756;28;20167;-68
2023/03/02 05:14:26;;;;;;;25.40;9.07;;;;;;;-144.47;70.98;53126.22;5036722;28;20033;-68
2023/03/02 05:16:52;;;;;;;17.58;8.18;;;;;;;-144.47;70.75;53130.19;5041018;28;20029;-68
2023/03/02 05:19:18;;;;;;;24.85;8.32;;;;;;;-144.47;70.86;53120.25;5039833;28;20406;-67
2023/03/02 05:21:43;;;;;;;18.83;8.07;;;;;;;-144.47;71.18;53122.25;5032155;28;20022;-68
2023/03/02 05:24:09;;;;;;;16.65;7.57;;;;;;;-144.47;71.56;53106.34;5035715;28;20109;-68
2023/03/02 05:26:38;;;;;;;20.00;9.70;;;;;;;-144.47;71.84;53092.44;5036590;28;20040;-67
2023/03/02 05:29:04;;;;;;;16.05;7.82;;;;;;;-144.47;71.83;53124.22;5030604;28;20033;-66
2023/03/02 05:31:39;;;;;;;14.63;7.00;;;;;;;-144.47;72.26;53120.25;5040147;28;20040;-67
2023/03/02 05:34:06;;;;;;;20.42;7.70;;;;;;;-144.47;72.62;53094.44;5044251;28;20017;-67
2023/03/02 05:36:33;;;;;;;23.13;8.52;;;;;;;-144.47;72.67;53102.38;5041737;28;20089;-67
2023/03/02 05:38:58;;;;;;;21.15;9.02;;;;;;;-144.47;72.85;53138.13;5034953;28;20079;-66
2023/03/02 05:41:24;;;;;;;20.88;8.55;;;;;;;-144.47;74.18;53108.34;5034412;28;20026;-66
2023/03/02 05:43:50;;;;;;;24.10;8.15;;;;;;;-144.47;74.14;53158.00;5024082;28;20029;-67
2023/03/02 05:46:16;;;;;;;15.95;6.97;;;;;;;-144.47;75.14;53150.06;5038036;28;20056;-69
2023/03/02 05:48:41;;;;;;;23.25;9.13;;;;;;;-144.47;74.44;53148.06;5047116;28;20036;-67
2023/03/02 05:51:07;;;;;;;27.42;9.27;;;;;;;-144.47;74.11;53150.06;5051340;28;20102;-67
2023/03/02 05:53:32;;;;;;;27.65;8.77;;;;;;;-144.47;74.35;53114.31;5050395;28;20047;-66
2023/03/02 05:55:57;;;;;;;27.00;8.18;;;;;;;-144.47;74.38;53138.13;5042258;28;20109;-67
2023/03/02 05:58:23;;;;;;;26.20;8.85;;;;;;;-144.47;74.96;53158.00;5032553;28;20026;-68
2023/03/02 06:00:49;;;;;;;14.93;7.13;;;;;;;-144.47;74.69;53122.25;5040454;28;20028;-68
2023/03/02 06:03:15;;;;;;;17.80;7.45;;;;;;;-144.47;74.93;53146.09;5029454;28;20021;-68
2023/03/02 06:05:40;;;;;;;20.42;7.75;;;;;;;-144.47;75.01;53132.19;5030024;28;20112;-69
2023/03/02 06:08:06;;;;;;;14.02;7.05;;;;;;;-144.47;75.12;53134.16;5034708;28;20128;-68
2023/03/02 06:10:32;;;;;;;17.63;7.32;;;;;;;-144.47;74.94;53146.09;5018478;28;20479;-67
2023/03/02 06:12:58;;;;;;;21.27;9.40;;;;;;;-144.47;75.11;53138.13;5032428;28;20435;-69
2023/03/02 06:15:23;;;;;;;19.98;7.72;;;;;;;-144.47;76.73;53140.13;5036072;28;20029;-69
2023/03/02 06:17:49;;;;;;;13.00;7.15;;;;;;;-144.47;76.58;53142.09;5027875;28;20445;-66
2023/03/02 06:20:15;;;;;;;23.38;9.23;;;;;;;-144.47;76.25;53136.16;5034182;28;20058;-67
2023/03/02 06:22:44;;;;;;;17.77;8.65;;;;;;;-144.47;76.21;53138.13;5049663;28;20099;-68
2023/03/02 06:25:17;;;;;;;;;;;;;;;-144.47;75.30;53128.22;5030630;28;20025;-67
2023/03/02 06:27:42;;;;;;;23.42;7.57;;;;;;;-144.47;75.40;53158.00;5029132;28;20059;-68
2023/03/02 06:30:12;;;;;;;18.95;8.13;;;;;;;-144.47;74.09;53152.03;5034374;28;20462;-69
2023/03/02 06:32:37;;;;;;;17.17;7.35;;;;;;;-144.47;74.12;53108.34;5038893;28;20029;-70
2023/03/02 06:35:04;;;;;;;23.77;9.10;;;;;;;-144.47;73.68;53128.22;5033746;28;20102;-69
2023/03/02 06:37:30;;;;;;;16.40;7.80;;;;;;;-144.47;80.34;53112.31;5041105;28;20029;-70
2023/03/02 06:39:57;;;;;;;20.67;7.13;;;;;;;-144.47;76.47;53102.38;5038966;28;20048;-69
2023/03/02 06:42:27;;;;;;;24.05;11.52;;;;;;;-144.47;74.39;53106.34;5038008;28;20036;-71
2023/03/02 06:44:56;;;;;;;23.23;8.55;;;;;;;-144.47;73.17;53106.34;5042860;28;20026;-69
2023/03/02 06:47:22;;;;;;;18.42;8.43;;;;;;;-144.47;72.21;53126.22;5040765;28;20025;-70
2023/03/02 06:49:48;;;;;;;17.30;7.82;;;;;;;-144.47;71.88;53122.25;5006233;28;20032;-69
2023/03/02 06:52:13;;;;;;;19.65;7.13;;;;;;;-144.47;72.00;53118.28;5037708;28;20025;-69
2023/03/02 06:54:39;;;;;;;26.13;7.20;;;;;;;-144.47;72.57;53122.25;5040357;28;20455;-69
2023/03/02 06:57:05;;;;;;;15.02;6.95;;;;;;;-144.47;71.78;53122.25;5036298;28;20021;-68
2023/03/02 06:59:30;;;;;;;16.70;8.07;;;;;;;-144.47;72.70;53120.25;5029963;28;20036;-70
2023/03/02 07:01:55;;;;;;;14.50;6.03;;;;;;;-144.47;72.94;53098.41;5036409;28;20510;-70
2023/03/02 07:04:21;;;;;;;24.13;8.07;;;;;;;-144.47;73.34;53126.22;5035707;28;20025;-73
2023/03/02 07:06:46;;;;;;;25.55;7.85;;;;;;;-144.47;73.78;53126.22;5034880;28;20047;-68
2023/03/02 07:09:12;;;;;;;21.75;7.50;;;;;;;-144.47;73.65;53136.16;5032201;28;20052;-69
2023/03/02 07:11:37;;;;;;;14.30;6.85;;;;;;;-144.47;72.74;53128.22;5028106;28;20616;-69
2023/03/02 07:14:03;;;;;;;29.55;6.50;;;;;;;-144.47;72.10;53142.09;5034438;28;20024;-68
2023/03/02 07:16:29;;;;;;;22.25;8.18;;;;;;;-144.47;71.83;53122.25;5037064;28;20428;-71
2023/03/02 07:18:55;;;;;;;15.57;6.05;;;;;;;-144.47;71.98;53118.28;5039669;28;20032;-68
2023/03/02 07:21:20;;;;;;;22.80;8.90;;;;;;;-144.47;70.90;53082.53;5028970;28;20033;-70
2023/03/02 07:23:46;;;;;;;23.35;8.70;;;;;;;-144.47;70.45;53108.34;5029932;28;20072;-70
2023/03/02 07:26:11;;;;;;;20.80;8.10;;;;;;;-144.47;70.25;53080.53;5012366;28;20585;-70
2023/03/02 07:28:38;;;;;;;15.35;8.07;;;;;;;-144.47;69.94;53108.34;5044966;28;20092;-70
2023/03/02 07:31:05;;;;;;;26.67;10.43;;;;;;;-144.47;69.06;53090.47;5036781;28;20519;-68
2023/03/02 07:33:30;;;;;;;22.15;8.65;;;;;;;-144.47;68.76;53072.59;5048237;28;20021;-69
2023/03/02 07:35:56;;;;;;;33.67;10.05;;;;;;;-144.47;68.62;53080.53;5046380;28;20044;-68
2023/03/02 07:38:22;;;;;;;29.73;9.95;;;;;;;-144.47;68.62;53108.34;5034735;28;20630;-69
2023/03/02 07:40:48;;;;;;;54.75;13.75;;;;;;;-144.47;67.50;53058.69;5041328;28;20030;-69
2023/03/02 07:43:16;;;;;;;106.85;22.20;;;;;;;-144.47;67.33;53080.53;5035834;28;20487;-69
2023/03/02 07:45:42;;;;;;;88.25;19.08;;;;;;;-144.47;66.58;53086.50;5042467;28;20092;-70
2023/03/02 07:48:07;;;;;;;99.03;22.88;;;;;;;-144.47;66.36;53080.53;5046303;28;20148;-68
2023/03/02 07:50:33;;;;;;;44.22;13.45;;;;;;;-144.47;66.36;53094.44;5036470;28;20087;-69
2023/03/02 07:52:58;;;;;;;58.95;14.48;;;;;;;-144.47;65.67;53080.53;5042449;28;20028;-69
2023/03/02 07:55:24;;;;;;;57.03;14.25;;;;;;;-144.47;65.61;53094.44;5042318;28;20025;-69
2023/03/02 07:57:49;;;;;;;26.00;9.98;;;;;;;-144.47;65.02;53066.63;5041885;28;20025;-69
2023/03/02 08:00:16;;;;;;;51.67;14.50;;;;;;;-144.47;64.97;53058.69;5041355;28;20032;-70
2023/03/02 08:02:42;;;;;;;31.08;9.77;;;;;;;-144.47;64.58;53074.56;5022993;28;20099;-70
2023/03/02 08:05:08;;;;;;;41.97;11.77;;;;;;;-144.47;64.38;53038.81;5033139;28;20036;-69
2023/03/02 08:07:34;;;;;;;27.33;11.50;;;;;;;-144.47;63.90;53058.69;5042051;28;20510;-68
2023/03/02 08:09:59;;;;;;;47.85;13.32;;;;;;;-144.47;63.23;53090.47;5030362;28;20037;-70
2023/03/02 08:12:26;;;;;;;28.40;9.02;;;;;;;-144.47;62.88;53068.63;5012982;28;20168;-69
2023/03/02 08:14:51;;;;;;;59.05;15.13;;;;;;;-144.47;62.38;53046.75;5030295;28;20025;-69
2023/03/02 08:17:18;;;;;;;25.55;9.95;;;;;;;-144.47;62.41;53060.66;5032034;28;20053;-69
2023/03/02 08:19:43;;;;;;;36.47;12.05;;;;;;;-144.47;61.31;53052.72;5035606;28;20087;-72
2023/03/02 08:22:08;;;;;;;30.90;11.07;;;;;;;-144.47;61.26;53058.69;5040313;28;20558;-70
2023/03/02 08:24:34;;;;;;;33.65;12.35;;;;;;;-144.47;60.70;53054.72;5047999;28;20546;-70
2023/03/02 08:27:01;;;;;;;31.08;10.65;;;;;;;-144.47;60.67;53018.97;5040730;28;20106;-69
2023/03/02 08:29:26;;;;;;;27.60;8.98;;;;;;;-144.47;60.21;53076.56;5032018;28;20044;-69
2023/03/02 08:31:52;;;;;;;46.67;13.23;;;;;;;-144.47;59.94;53013.00;5031753;28;20057;-70
2023/03/02 08:34:17;;;;;;;32.22;10.45;;;;;;;-144.47;59.03;53046.75;5014252;28;20112;-68
2023/03/02 08:36:43;;;;;;;20.27;9.48;;;;;;;-144.47;59.02;53024.91;5044695;28;20482;-68
2023/03/02 08:39:09;;;;;;;28.05;11.60;;;;;;;-144.47;57.97;53018.97;5029912;28;20033;-69
2023/03/02 08:41:35;;;;;;;34.20;11.98;;;;;;;-144.47;56.85;53028.88;5035764;28;20127;-69
2023/03/02 08:44:00;;;;;;;20.45;9.25;;;;;;;-144.47;56.67;53032.88;5031582;28;20456;-70
2023/03/02 08:46:25;;;;;;;36.20;13.27;;;;;;;-144.47;56.64;53028.88;5040801;28;20127;-68
2023/03/02 08:48:51;;;;;;;27.08;11.00;;;;;;;-144.47;55.60;53042.78;5040790;28;20041;-70
2023/03/02 08:51:19;;;;;;;30.20;10.50;;;;;;;-144.47;56.09;53015.00;5036015;28;20044;-70
2023/03/02 08:53:46;;;;;;;24.98;9.82;;;;;;;-144.47;55.69;53005.06;5038328;28;20041;-68
2023/03/02 08:56:30;;;;;;;41.08;11.75;;;;;;;-144.47;54.68;53020.94;5042975;28;20629;-68
2023/03/02 08:58:59;;;;;;;36.10;10.65;;;;;;;-144.47;54.76;52977.25;5029049;28;20025;-69
2023/03/02 09:01:28;;;;;;;49.08;12.73;;;;;;;-144.47;54.52;53011.00;5012115;28;20033;-70
2023/03/02 09:03:53;;;;;;;;;;;;;;;-144.47;53.94;52999.09;5040697;28;20103;-68
2023/03/02 09:06:19;;;;;;;25.50;10.13;;;;;;;-144.47;53.33;53005.06;5025198;28;19959;-69
2023/03/02 09:08:45;;;;;;;27.33;10.48;;;;;;;-144.47;53.36;53009.03;5037461;28;20097;-69
2023/03/02 09:11:10;;;;;;;21.02;9.63;;;;;;;-144.47;53.55;52989.16;5026653;28;20040;-68
2023/03/02 09:13:36;;;;;;;27.25;11.20;;;;;;;-144.47;52.31;52977.25;5034596;28;20029;-69
2023/03/02 09:16:02;;;;;;;20.42;9.80;;;;;;;-144.47;52.28;52989.16;5037832;28;20115;-70
2023/03/02 09:18:29;;;;;;;32.53;10.75;;;;;;;-144.47;52.07;52993.13;5047196;28;20029;-69
2023/03/02 09:20:55;;;;;;;25.88;10.25;;;;;;;-144.47;51.40;52983.22;5023710;28;20094;-69
2023/03/02 09:23:22;;;;;;;27.35;10.45;;;;;;;-144.47;51.89;53007.03;5031466;28;20075;-68
2023/03/02 09:25:47;;;;;;;24.80;10.63;;;;;;;-144.47;52.29;52999.09;5018082;28;20406;-68
2023/03/02 09:28:14;;;;;;;23.45;10.13;;;;;;;-144.47;51.18;52987.19;5034345;28;20064;-68
2023/03/02 09:30:40;;;;;;;22.20;9.48;;;;;;;-144.47;51.29;52981.22;5048307;28;20021;-68
2023/03/02 09:33:06;;;;;;;23.92;9.20;;;;;;;-144.47;50.55;52961.34;5041770;28;20032;-68
2023/03/02 09:35:31;;;;;;;28.33;10.25;;;;;;;-144.47;49.71;52975.25;5045854;28;20432;-70
2023/03/02 09:37:57;;;;;;;24.58;9.57;;;;;;;-144.47;49.03;52973.28;5040286;28;20493;-70
2023/03/02 09:40:25;;;;;;;27.85;9.70;;;;;;;-144.47;49.97;52945.47;5042009;28;20039;-70
2023/03/02 09:42:58;;;;;;;28.35;11.05;;;;;;;-144.47;50.09;52961.34;5039163;28;20025;-69
2023/03/02 09:45:42;;;;;;;24.75;10.35;;;;;;;-144.47;49.89;52961.34;5050607;28;20025;-70
2023/03/02 09:48:18;;;;;;;25.45;10.65;;;;;;;-144.47;49.56;52955.41;5013950;28;20370;-70
2023/03/02 09:51:06;;;;;;;31.45;10.05;;;;;;;-144.47;49.03;52967.31;5040490;28;20122;-69
2023/03/02 09:53:52;;;;;;;26.23;10.23;;;;;;;-144.47;49.23;52951.44;5026938;28;20025;-70
2023/03/02 09:56:18;;;;;;;27.38;10.35;;;;;;;-144.47;49.21;52963.34;5035367;28;20391;-67
2023/03/02 09:58:57;;;;;;;27.42;9.60;;;;;;;-144.47;49.00;52943.47;5038273;28;20035;-69
2023/03/02 10:01:35;;;;;;;32.35;12.43;;;;;;;-144.47;49.15;52939.50;5039659;28;20021;-70
2023/03/02 10:04:28;;;;;;;24.05;9.70;;;;;;;-144.47;48.69;52945.47;5012310;28;20025;-70
2023/03/02 10:07:00;;;;;;;27.83;10.63;;;;;;;-144.47;48.81;52963.34;5033863;28;20087;-70
2023/03/02 10:09:25;;;;;;;23.48;10.65;;;;;;;-144.47;48.75;52941.50;5038784;28;20037;-70
2023/03/02 10:12:15;;;;;;;29.25;9.68;;;;;;;-144.47;48.67;52923.63;5026881;28;20025;-69
2023/03/02 10:14:49;;;;;;;28.08;10.88;;;;;;;-144.47;48.81;52929.59;5040183;28;20037;-70
2023/03/02 10:17:32;;;;;;;30.48;11.48;;;;;;;-144.47;49.14;52911.69;5048374;22;20041;-70
2023/03/02 10:20:42;;;;;;;24.20;9.48;;;;;;;-144.47;48.91;52935.53;5048538;28;20025;-67
2023/03/02 10:23:37;;;;;;;24.20;10.15;;;;;;;-144.47;48.41;52929.59;5025245;28;20190;-69
2023/03/02 10:26:05;;;;;;;22.25;9.77;;;;;;;-144.47;48.58;52909.72;5032037;28;20033;-68
2023/03/02 10:28:37;;;;;;;29.07;10.97;;;;;;;-144.47;48.87;52927.59;5056992;28;20028;-68
2023/03/02 10:31:11;;;;;;;24.38;9.93;;;;;;;-144.47;48.61;52933.56;5068270;28;20024;-67
2023/03/02 10:33:39;;;;;;;28.30;11.48;;;;;;;-144.47;48.37;52923.63;5067646;28;20032;-67
2023/03/02 10:36:20;;;;;;;24.73;10.57;;;;;;;-144.47;48.06;52907.72;5050508;28;20028;-69
2023/03/02 10:38:46;;;;;;;21.00;9.80;;;;;;;-144.47;47.63;52899.78;5066176;28;21696;-66
2023/03/02 10:41:19;;;;;;;24.42;11.13;;;;;;;-144.47;47.84;52923.63;5065791;28;20078;-69
2023/03/02 10:43:48;;;;;;;26.25;11.57;;;;;;;-144.47;47.57;52925.59;5065084;28;20060;-68
2023/03/02 10:46:14;;;;;;;31.92;10.75;;;;;;;-144.47;47.75;52927.59;5069734;28;20032;-68
2023/03/02 10:49:21;;;;;;;32.35;11.82;;;;;;;-144.47;48.44;52913.69;5067671;28;20397;-71
2023/03/02 10:51:58;;;;;;;25.48;10.07;;;;;;;-144.47;47.83;52897.81;5068753;28;20050;-67
2023/03/02 10:54:24;;;;;;;26.08;10.48;;;;;;;-144.47;48.11;52927.59;5067098;28;20023;-69
2023/03/02 10:56:52;;;;;;;21.45;10.05;;;;;;;-144.47;47.64;52879.94;5067652;28;20123;-67
2023/03/02 10:59:33;;;;;;;20.08;9.85;;;;;;;-144.47;47.94;52905.75;5065648;28;20039;-70
2023/03/02 11:02:22;;;;;;;27.23;10.63;;;;;;;-144.47;47.59;52899.78;5065981;28;20028;-66
2023/03/02 11:04:58;;;;;;;22.27;10.57;;;;;;;-144.47;47.72;52911.69;5067928;28;20728;-68
2023/03/02 11:07:28;;;;;;;25.88;10.90;;;;;;;-144.47;47.87;52929.59;5069627;28;20111;-67
2023/03/02 11:10:05;;;;;;;22.77;9.07;;;;;;;-144.47;48.26;52909.72;5068163;28;20085;-67
2023/03/02 11:12:34;;;;;;;21.90;9.70;;;;;;;-144.47;47.62;52895.81;5071461;28;20489;-70
2023/03/02 11:15:23;;;;;;;20.88;10.77;;;;;;;-144.47;47.02;52893.81;5067153;28;20021;-71
2023/03/02 11:18:14;;;;;;;;;;;;;;;-144.47;47.13;52939.50;5066230;28;20043;-68